createdAt,value
2019-05-16T00:00:42.448Z,98352.00
2019-05-16T00:05:54.351Z,98340.00
2019-05-16T00:11:02.168Z,98334.00
2019-05-16T00:16:11.790Z,98327.00
2019-05-16T00:21:21.188Z,98328.00
2019-05-16T00:26:30.949Z,98323.00
2019-05-16T00:31:38.809Z,98315.00
2019-05-16T00:36:45.920Z,98317.00
2019-05-16T00:41:53.132Z,98312.00
2019-05-16T00:47:14.647Z,98300.00
2019-05-16T00:52:23.040Z,98300.00
2019-05-16T00:57:31.632Z,98299.00
2019-05-16T01:02:39.794Z,98290.00
2019-05-16T01:07:48.166Z,98280.00
2019-05-16T01:12:55.423Z,98271.00
2019-05-16T01:18:03.526Z,98248.00
2019-05-16T01:23:11.304Z,98244.00
2019-05-16T01:28:19.581Z,98256.00
2019-05-16T01:33:28.133Z,98256.00
2019-05-16T01:38:36.330Z,98254.00
2019-05-16T01:43:43.430Z,98241.00
2019-05-16T01:48:50.994Z,98237.00
2019-05-16T01:53:58.103Z,98235.00
2019-05-16T01:59:08.898Z,98224.00
2019-05-16T02:04:18.939Z,98230.00
2019-05-16T02:09:27.929Z,98215.00
2019-05-16T02:14:35.050Z,98212.00
2019-05-16T02:19:43.074Z,98214.00
2019-05-16T02:24:51.098Z,98215.00
2019-05-16T02:29:59.977Z,98201.00
2019-05-16T02:35:31.182Z,98200.00
2019-05-16T02:40:38.201Z,98190.00
2019-05-16T02:45:46.589Z,98187.00
2019-05-16T02:50:55.309Z,98176.00
2019-05-16T02:56:12.388Z,98176.00
2019-05-16T03:01:21.577Z,98166.00
2019-05-16T03:06:32.035Z,98159.00
2019-05-16T03:11:42.343Z,98160.00
2019-05-16T03:17:04.415Z,98149.00
2019-05-16T03:22:17.021Z,98143.00
2019-05-16T03:27:25.580Z,98126.00
2019-05-16T03:32:35.130Z,98121.00
2019-05-16T03:37:55.283Z,98114.00
2019-05-16T03:42:51.853Z,98105.00
2019-05-16T03:48:02.830Z,98112.00
2019-05-16T03:53:11.653Z,98111.00
2019-05-16T03:58:22.640Z,98108.00
2019-05-16T04:03:32.609Z,98105.00
2019-05-16T04:08:37.314Z,98097.00
2019-05-16T04:13:44.578Z,98092.00
2019-05-16T04:18:51.808Z,98073.00
2019-05-16T04:24:01.752Z,98065.00
2019-05-16T04:29:11.902Z,98054.00
2019-05-16T04:34:23.140Z,98062.00
2019-05-16T04:39:31.945Z,98059.00
2019-05-16T04:44:41.629Z,98062.00
2019-05-16T04:49:51.948Z,98061.00
2019-05-16T04:55:00.950Z,98059.00
2019-05-16T05:00:11.350Z,98056.00
2019-05-16T05:05:21.494Z,98051.00
2019-05-16T05:10:31.254Z,98051.00
2019-05-16T05:15:40.214Z,98057.00
2019-05-16T05:20:48.402Z,98055.00
2019-05-16T05:25:55.608Z,98052.00
2019-05-16T05:31:03.615Z,98059.00
2019-05-16T05:36:17.006Z,98054.00
2019-05-16T05:41:24.301Z,98051.00
2019-05-16T05:46:31.940Z,98058.00
2019-05-16T05:51:40.816Z,98050.00
2019-05-16T05:56:50.093Z,98057.00
2019-05-16T06:02:00.575Z,98047.00
2019-05-16T06:07:07.155Z,98050.00
2019-05-16T06:12:14.352Z,98038.00
2019-05-16T06:17:21.692Z,98028.00
2019-05-16T06:22:29.845Z,98003.00
2019-05-16T06:27:40.644Z,97996.00
2019-05-16T06:32:50.146Z,98003.00
2019-05-16T06:37:57.206Z,98011.00
2019-05-16T06:43:05.057Z,98014.00
2019-05-16T06:48:12.344Z,98005.00
2019-05-16T06:53:20.985Z,98003.00
2019-05-16T06:58:30.310Z,98007.00
2019-05-16T07:03:40.119Z,97990.00
2019-05-16T07:08:50.781Z,97997.00
2019-05-16T07:13:57.364Z,98011.00
2019-05-16T07:19:04.554Z,98006.00
2019-05-16T07:24:17.015Z,98012.00
2019-05-16T07:29:24.524Z,98011.00
2019-05-16T07:34:31.864Z,97994.00
2019-05-16T07:39:41.771Z,97991.00
2019-05-16T07:44:51.382Z,97977.00
2019-05-16T07:49:59.555Z,97982.00
2019-05-16T07:55:10.488Z,97981.00
2019-05-16T08:00:21.258Z,97958.00
2019-05-16T08:05:45.490Z,97968.00
2019-05-16T08:11:12.115Z,97961.00
2019-05-16T08:16:40.539Z,97971.00
2019-05-16T08:22:06.476Z,97971.00
2019-05-16T08:27:32.213Z,97963.00
2019-05-16T08:33:02.495Z,97961.00
2019-05-16T08:38:27.330Z,97968.00
2019-05-16T08:43:53.590Z,97964.00
2019-05-16T08:49:22.083Z,97960.00
2019-05-16T08:54:47.080Z,97963.00
2019-05-16T09:00:15.085Z,97959.00
2019-05-16T09:05:42.943Z,97957.00
2019-05-16T09:11:27.111Z,97944.00
2019-05-16T09:16:37.180Z,97950.00
2019-05-16T09:22:03.150Z,97932.00
2019-05-16T09:27:28.760Z,97927.00
2019-05-16T09:32:54.391Z,97927.00
2019-05-16T09:38:23.770Z,97941.00
2019-05-16T09:43:49.130Z,97932.00
2019-05-16T09:49:22.687Z,97932.00
2019-05-16T09:54:42.094Z,97931.00
2019-05-16T10:00:17.780Z,97926.00
2019-05-16T10:05:42.614Z,97919.00
2019-05-16T10:11:21.140Z,97927.00
2019-05-16T10:16:47.702Z,97923.00
2019-05-16T10:22:16.865Z,97914.00
2019-05-16T10:27:41.344Z,97914.00
2019-05-16T10:33:08.511Z,97913.00
2019-05-16T10:38:18.750Z,97904.00
2019-05-16T10:43:38.691Z,97913.00
2019-05-16T10:49:04.398Z,97895.00
2019-05-16T10:54:30.049Z,97895.00
2019-05-16T11:00:06.485Z,97893.00
2019-05-16T11:05:30.496Z,97885.00
2019-05-16T11:10:49.616Z,97884.00
2019-05-16T11:16:17.311Z,97886.00
2019-05-16T11:21:42.473Z,97873.00
2019-05-16T11:27:09.234Z,97875.00
2019-05-16T11:32:37.363Z,97867.00
2019-05-16T11:37:47.144Z,97870.00
2019-05-16T11:43:19.111Z,97881.00
2019-05-16T11:48:41.602Z,97870.00
2019-05-16T11:54:07.065Z,97874.00
2019-05-16T11:59:30.529Z,97869.00
2019-05-16T12:05:09.522Z,97867.00
2019-05-16T12:10:36.331Z,97865.00
2019-05-16T12:15:46.098Z,97868.00
2019-05-16T12:20:56.426Z,97862.00
2019-05-16T12:26:07.456Z,97859.00
2019-05-16T12:31:18.649Z,97865.00
2019-05-16T12:36:27.105Z,97861.00
2019-05-16T12:41:40.910Z,97869.00
2019-05-16T12:47:04.528Z,97866.00
2019-05-16T12:52:21.217Z,97870.00
2019-05-16T12:57:49.054Z,97857.00
2019-05-16T13:03:15.389Z,97868.00
2019-05-16T13:08:41.224Z,97858.00
2019-05-16T13:14:11.088Z,97868.00
2019-05-16T13:19:43.285Z,97873.00
2019-05-16T13:25:03.017Z,97859.00
2019-05-16T13:30:29.022Z,97849.00
2019-05-16T13:35:54.653Z,97847.00
2019-05-16T13:41:20.513Z,97840.00
2019-05-16T13:46:46.802Z,97844.00
2019-05-16T13:52:08.916Z,97844.00
2019-05-16T13:57:21.576Z,97848.00
2019-05-16T14:02:48.305Z,97849.00
2019-05-16T14:08:08.797Z,97839.00
2019-05-16T14:13:16.645Z,97838.00
2019-05-16T14:18:42.757Z,97838.00
2019-05-16T14:24:08.857Z,97842.00
2019-05-16T14:29:37.514Z,97834.00
2019-05-16T14:35:01.922Z,97830.00
2019-05-16T14:40:13.076Z,97825.00
2019-05-16T14:45:27.358Z,97841.00
2019-05-16T14:50:37.512Z,97840.00
2019-05-16T14:56:06.808Z,97833.00
2019-05-16T15:01:13.043Z,97835.00
2019-05-16T15:06:38.539Z,97831.00
2019-05-16T15:12:06.679Z,97833.00
2019-05-16T15:17:16.617Z,97836.00
2019-05-16T15:22:22.817Z,97836.00
2019-05-16T15:27:32.587Z,97841.00
2019-05-16T15:32:44.528Z,97833.00
2019-05-16T15:37:51.757Z,97833.00
2019-05-16T15:43:00.180Z,97827.00
2019-05-16T15:48:08.802Z,97821.00
2019-05-16T15:53:31.037Z,97815.00
2019-05-16T15:58:39.348Z,97810.00
2019-05-16T16:03:47.361Z,97802.00
2019-05-16T16:09:11.512Z,97801.00
2019-05-16T16:14:19.080Z,97802.00
2019-05-16T16:19:26.707Z,97798.00
2019-05-16T16:24:34.222Z,97806.00
2019-05-16T16:29:47.763Z,97805.00
2019-05-16T16:34:57.352Z,97803.00
2019-05-16T16:40:10.999Z,97809.00
2019-05-16T16:45:17.477Z,97820.00
2019-05-16T16:50:26.552Z,97810.00
2019-05-16T16:55:37.175Z,97816.00
2019-05-16T17:00:47.690Z,97821.00
2019-05-16T17:05:56.955Z,97821.00
2019-05-16T17:11:06.786Z,97815.00
2019-05-16T17:16:25.335Z,97822.00
2019-05-16T17:21:23.346Z,97810.00
2019-05-16T17:26:30.827Z,97806.00
2019-05-16T17:31:38.263Z,97798.00
2019-05-16T17:36:48.386Z,97800.00
2019-05-16T17:41:57.961Z,97798.00
2019-05-16T17:47:07.050Z,97796.00
2019-05-16T17:52:17.275Z,97800.00
2019-05-16T17:57:42.677Z,97793.00
2019-05-16T18:02:50.308Z,97805.00
2019-05-16T18:08:02.647Z,97807.00
2019-05-16T18:13:29.438Z,97804.00
2019-05-16T18:18:38.353Z,97807.00
2019-05-16T18:23:48.299Z,97809.00
2019-05-16T18:29:00.681Z,97804.00
2019-05-16T18:34:20.300Z,97806.00
2019-05-16T18:39:28.851Z,97804.00
2019-05-16T18:44:36.725Z,97814.00
2019-05-16T18:50:06.610Z,97805.00
2019-05-16T18:55:33.187Z,97817.00
2019-05-16T19:00:40.684Z,97806.00
2019-05-16T19:06:07.728Z,97804.00
2019-05-16T19:11:28.232Z,97803.00
2019-05-16T19:16:48.904Z,97804.00
2019-05-16T19:22:08.720Z,97804.00
2019-05-16T19:27:36.956Z,97801.00
2019-05-16T19:32:46.862Z,97794.00
2019-05-16T19:37:58.704Z,97798.00
2019-05-16T19:43:07.587Z,97810.00
2019-05-16T19:48:17.423Z,97807.00
2019-05-16T19:53:27.114Z,97800.00
2019-05-16T19:58:34.304Z,97800.00
2019-05-16T20:04:09.847Z,97798.00
2019-05-16T20:09:18.344Z,97790.00
2019-05-16T20:14:27.340Z,97790.00
2019-05-16T20:19:38.317Z,97788.00
2019-05-16T20:24:46.942Z,97786.00
2019-05-16T20:29:59.415Z,97772.00
2019-05-16T20:35:09.967Z,97775.00
2019-05-16T20:40:19.724Z,97770.00
2019-05-16T20:45:27.535Z,97776.00
2019-05-16T20:50:52.889Z,97775.00
2019-05-16T20:56:01.947Z,97776.00
2019-05-16T21:01:10.998Z,97779.00
2019-05-16T21:06:20.278Z,97781.00
2019-05-16T21:11:28.644Z,97772.00
2019-05-16T21:16:38.068Z,97775.00
2019-05-16T21:21:47.111Z,97766.00
2019-05-16T21:26:54.504Z,97758.00
2019-05-16T21:32:11.838Z,97758.00
2019-05-16T21:37:20.654Z,97750.00
2019-05-16T21:42:36.339Z,97754.00
2019-05-16T21:47:44.306Z,97761.00
2019-05-16T21:52:52.176Z,97756.00
2019-05-16T21:57:59.619Z,97753.00
2019-05-16T22:03:09.369Z,97750.00
2019-05-16T22:08:17.016Z,97750.00
2019-05-16T22:13:24.361Z,97742.00
2019-05-16T22:18:32.380Z,97744.00
2019-05-16T22:23:41.326Z,97739.00
2019-05-16T22:28:49.573Z,97746.00
2019-05-16T22:33:58.600Z,97746.00
2019-05-16T22:39:07.978Z,97752.00
2019-05-16T22:44:17.620Z,97750.00
2019-05-16T23:09:29.670Z,97737.00
2019-05-16T23:14:37.001Z,97746.00
2019-05-16T23:19:47.463Z,97741.00
2019-05-16T23:24:56.878Z,97739.00
2019-05-16T23:30:07.436Z,97728.00
2019-05-16T23:35:15.888Z,97727.00
2019-05-16T23:40:25.482Z,97721.00
2019-05-16T23:45:33.770Z,97715.00
2019-05-16T23:50:42.115Z,97720.00
2019-05-16T23:55:49.632Z,97704.00
